sensor_id;sensor_type;location;lat;lon;timestamp;temperature;humidity
24152;DHT22;12311;50.866;4.332;2022-08-19T00:01:48;20.60;99.90
24152;DHT22;12311;50.866;4.332;2022-08-19T00:04:16;20.60;99.90
24152;DHT22;12311;50.866;4.332;2022-08-19T00:06:44;20.50;99.90
24152;DHT22;12311;50.866;4.332;2022-08-19T00:09:14;20.60;99.90
24152;DHT22;12311;50.866;4.332;2022-08-19T00:11:41;20.70;99.90
24152;DHT22;12311;50.866;4.332;2022-08-19T00:14:08;20.70;99.90
24152;DHT22;12311;50.866;4.332;2022-08-19T00:16:36;20.70;99.90
24152;DHT22;12311;50.866;4.332;2022-08-19T00:19:02;20.70;99.90
24152;DHT22;12311;50.866;4.332;2022-08-19T00:21:28;20.70;99.90
24152;DHT22;12311;50.866;4.332;2022-08-19T00:23:54;20.60;99.90
24152;DHT22;12311;50.866;4.332;2022-08-19T00:26:24;20.40;99.90
24152;DHT22;12311;50.866;4.332;2022-08-19T00:28:50;20.50;99.90
24152;DHT22;12311;50.866;4.332;2022-08-19T00:31:16;20.50;99.90
24152;DHT22;12311;50.866;4.332;2022-08-19T00:33:42;20.50;99.90
24152;DHT22;12311;50.866;4.332;2022-08-19T00:36:09;20.50;99.90
24152;DHT22;12311;50.866;4.332;2022-08-19T00:38:35;20.30;99.90
24152;DHT22;12311;50.866;4.332;2022-08-19T00:41:02;20.30;99.90
24152;DHT22;12311;50.866;4.332;2022-08-19T00:43:28;20.30;99.90
24152;DHT22;12311;50.866;4.332;2022-08-19T00:45:54;20.40;99.90
24152;DHT22;12311;50.866;4.332;2022-08-19T00:48:20;20.50;99.90
24152;DHT22;12311;50.866;4.332;2022-08-19T00:50:48;20.60;99.90
24152;DHT22;12311;50.866;4.332;2022-08-19T00:53:20;20.60;99.90
24152;DHT22;12311;50.866;4.332;2022-08-19T00:55:49;20.60;99.90
24152;DHT22;12311;50.866;4.332;2022-08-19T00:58:19;20.60;99.90
24152;DHT22;12311;50.866;4.332;2022-08-19T01:00:45;20.60;99.90
24152;DHT22;12311;50.866;4.332;2022-08-19T01:03:14;20.50;99.90
24152;DHT22;12311;50.866;4.332;2022-08-19T01:05:42;20.40;99.90
24152;DHT22;12311;50.866;4.332;2022-08-19T01:08:08;20.40;99.90
24152;DHT22;12311;50.866;4.332;2022-08-19T01:10:40;20.40;99.90
24152;DHT22;12311;50.866;4.332;2022-08-19T01:13:07;20.40;99.90
24152;DHT22;12311;50.866;4.332;2022-08-19T01:15:40;20.40;99.90
24152;DHT22;12311;50.866;4.332;2022-08-19T01:18:11;20.30;99.90
24152;DHT22;12311;50.866;4.332;2022-08-19T01:20:39;20.20;99.90
24152;DHT22;12311;50.866;4.332;2022-08-19T01:23:05;20.10;99.90
24152;DHT22;12311;50.866;4.332;2022-08-19T01:25:41;20.10;99.90
24152;DHT22;12311;50.866;4.332;2022-08-19T01:28:07;20.10;99.90
24152;DHT22;12311;50.866;4.332;2022-08-19T01:30:34;20.10;99.90
24152;DHT22;12311;50.866;4.332;2022-08-19T01:33:01;19.90;99.90
24152;DHT22;12311;50.866;4.332;2022-08-19T01:35:29;19.90;99.90
24152;DHT22;12311;50.866;4.332;2022-08-19T01:38:01;19.90;99.90
24152;DHT22;12311;50.866;4.332;2022-08-19T01:40:30;19.80;99.90
24152;DHT22;12311;50.866;4.332;2022-08-19T01:42:56;19.80;99.90
24152;DHT22;12311;50.866;4.332;2022-08-19T01:45:24;19.70;99.90
24152;DHT22;12311;50.866;4.332;2022-08-19T01:47:50;19.60;99.90
24152;DHT22;12311;50.866;4.332;2022-08-19T01:50:17;19.50;99.90
24152;DHT22;12311;50.866;4.332;2022-08-19T01:52:43;19.60;99.90
24152;DHT22;12311;50.866;4.332;2022-08-19T01:55:14;19.60;99.90
24152;DHT22;12311;50.866;4.332;2022-08-19T01:57:43;19.40;99.90
24152;DHT22;12311;50.866;4.332;2022-08-19T02:00:12;19.40;99.90
24152;DHT22;12311;50.866;4.332;2022-08-19T02:02:39;19.40;99.90
24152;DHT22;12311;50.866;4.332;2022-08-19T02:05:05;19.30;99.90
24152;DHT22;12311;50.866;4.332;2022-08-19T02:07:32;19.20;99.90
24152;DHT22;12311;50.866;4.332;2022-08-19T02:09:58;19.20;99.90
24152;DHT22;12311;50.866;4.332;2022-08-19T02:12:24;19.20;99.90
24152;DHT22;12311;50.866;4.332;2022-08-19T02:14:49;19.10;99.90
24152;DHT22;12311;50.866;4.332;2022-08-19T02:17:15;19.10;99.90
24152;DHT22;12311;50.866;4.332;2022-08-19T02:19:40;19.10;99.90
24152;DHT22;12311;50.866;4.332;2022-08-19T02:22:06;19.10;99.90
24152;DHT22;12311;50.866;4.332;2022-08-19T02:24:32;19.10;99.90
24152;DHT22;12311;50.866;4.332;2022-08-19T02:26:58;19.10;99.90
24152;DHT22;12311;50.866;4.332;2022-08-19T02:29:24;19.10;99.90
24152;DHT22;12311;50.866;4.332;2022-08-19T02:31:49;19.00;99.90
24152;DHT22;12311;50.866;4.332;2022-08-19T02:34:16;18.90;99.90
24152;DHT22;12311;50.866;4.332;2022-08-19T02:36:42;19.00;99.90
24152;DHT22;12311;50.866;4.332;2022-08-19T02:39:07;18.90;99.90
24152;DHT22;12311;50.866;4.332;2022-08-19T02:41:34;18.80;99.90
24152;DHT22;12311;50.866;4.332;2022-08-19T02:44:01;18.80;99.90
24152;DHT22;12311;50.866;4.332;2022-08-19T02:46:30;18.80;99.90
24152;DHT22;12311;50.866;4.332;2022-08-19T02:48:59;18.80;99.90
24152;DHT22;12311;50.866;4.332;2022-08-19T02:51:28;18.80;99.90
24152;DHT22;12311;50.866;4.332;2022-08-19T02:53:54;18.70;99.90
24152;DHT22;12311;50.866;4.332;2022-08-19T02:56:20;18.70;99.90
24152;DHT22;12311;50.866;4.332;2022-08-19T02:58:47;18.70;99.90
24152;DHT22;12311;50.866;4.332;2022-08-19T03:01:34;18.60;99.90
24152;DHT22;12311;50.866;4.332;2022-08-19T03:04:03;18.50;99.90
24152;DHT22;12311;50.866;4.332;2022-08-19T03:06:29;18.50;99.90
24152;DHT22;12311;50.866;4.332;2022-08-19T03:08:55;18.50;99.90
24152;DHT22;12311;50.866;4.332;2022-08-19T03:11:30;18.40;99.90
24152;DHT22;12311;50.866;4.332;2022-08-19T03:13:56;18.40;99.90
24152;DHT22;12311;50.866;4.332;2022-08-19T03:16:24;18.40;99.90
24152;DHT22;12311;50.866;4.332;2022-08-19T03:18:50;18.30;99.90
24152;DHT22;12311;50.866;4.332;2022-08-19T03:21:19;18.20;99.90
24152;DHT22;12311;50.866;4.332;2022-08-19T03:23:45;18.30;99.90
24152;DHT22;12311;50.866;4.332;2022-08-19T03:26:11;18.20;99.90
24152;DHT22;12311;50.866;4.332;2022-08-19T03:28:37;18.20;99.90
24152;DHT22;12311;50.866;4.332;2022-08-19T03:31:06;18.20;99.90
24152;DHT22;12311;50.866;4.332;2022-08-19T03:33:33;18.10;99.90
24152;DHT22;12311;50.866;4.332;2022-08-19T03:36:14;18.10;99.90
24152;DHT22;12311;50.866;4.332;2022-08-19T03:38:48;18.10;99.90
24152;DHT22;12311;50.866;4.332;2022-08-19T03:41:18;18.10;99.90
24152;DHT22;12311;50.866;4.332;2022-08-19T03:43:45;18.20;99.90
24152;DHT22;12311;50.866;4.332;2022-08-19T03:46:17;18.20;99.90
24152;DHT22;12311;50.866;4.332;2022-08-19T03:48:47;18.20;99.90
24152;DHT22;12311;50.866;4.332;2022-08-19T03:51:18;18.10;99.90
24152;DHT22;12311;50.866;4.332;2022-08-19T03:53:45;18.00;99.90
24152;DHT22;12311;50.866;4.332;2022-08-19T03:56:11;18.00;99.90
24152;DHT22;12311;50.866;4.332;2022-08-19T03:58:38;17.90;99.90
24152;DHT22;12311;50.866;4.332;2022-08-19T04:01:08;17.90;99.90
24152;DHT22;12311;50.866;4.332;2022-08-19T04:03:35;17.80;99.90
24152;DHT22;12311;50.866;4.332;2022-08-19T04:06:15;17.80;99.90
24152;DHT22;12311;50.866;4.332;2022-08-19T04:08:44;17.80;99.90
24152;DHT22;12311;50.866;4.332;2022-08-19T04:11:13;17.70;99.90
24152;DHT22;12311;50.866;4.332;2022-08-19T04:13:39;17.70;99.90
24152;DHT22;12311;50.866;4.332;2022-08-19T04:16:06;17.70;99.90
24152;DHT22;12311;50.866;4.332;2022-08-19T04:18:33;17.60;99.90
24152;DHT22;12311;50.866;4.332;2022-08-19T04:20:59;17.70;99.90
24152;DHT22;12311;50.866;4.332;2022-08-19T04:23:25;17.70;99.90
24152;DHT22;12311;50.866;4.332;2022-08-19T04:25:53;17.60;99.90
24152;DHT22;12311;50.866;4.332;2022-08-19T04:28:19;17.60;99.90
24152;DHT22;12311;50.866;4.332;2022-08-19T04:30:48;17.60;99.90
24152;DHT22;12311;50.866;4.332;2022-08-19T04:33:15;17.50;99.90
24152;DHT22;12311;50.866;4.332;2022-08-19T04:35:44;17.50;99.90
24152;DHT22;12311;50.866;4.332;2022-08-19T04:38:11;17.40;99.90
24152;DHT22;12311;50.866;4.332;2022-08-19T04:40:44;17.30;99.90
24152;DHT22;12311;50.866;4.332;2022-08-19T04:43:29;17.30;99.90
24152;DHT22;12311;50.866;4.332;2022-08-19T04:45:55;17.40;99.90
24152;DHT22;12311;50.866;4.332;2022-08-19T04:48:21;17.30;99.90
24152;DHT22;12311;50.866;4.332;2022-08-19T04:50:55;17.40;99.90
24152;DHT22;12311;50.866;4.332;2022-08-19T04:53:27;17.50;99.90
24152;DHT22;12311;50.866;4.332;2022-08-19T04:55:57;17.30;99.90
24152;DHT22;12311;50.866;4.332;2022-08-19T04:58:25;17.30;99.90
24152;DHT22;12311;50.866;4.332;2022-08-19T05:00:52;17.30;99.90
24152;DHT22;12311;50.866;4.332;2022-08-19T05:03:18;17.20;99.90
24152;DHT22;12311;50.866;4.332;2022-08-19T05:05:45;17.20;99.90
24152;DHT22;12311;50.866;4.332;2022-08-19T05:08:15;17.10;99.90
24152;DHT22;12311;50.866;4.332;2022-08-19T05:10:45;17.10;99.90
24152;DHT22;12311;50.866;4.332;2022-08-19T05:13:12;17.00;99.90
24152;DHT22;12311;50.866;4.332;2022-08-19T05:15:38;17.00;99.90
24152;DHT22;12311;50.866;4.332;2022-08-19T05:18:03;17.00;99.90
24152;DHT22;12311;50.866;4.332;2022-08-19T05:20:47;17.10;99.90
24152;DHT22;12311;50.866;4.332;2022-08-19T05:23:31;17.10;99.90
24152;DHT22;12311;50.866;4.332;2022-08-19T05:25:57;17.20;99.90
24152;DHT22;12311;50.866;4.332;2022-08-19T05:28:22;17.20;99.90
24152;DHT22;12311;50.866;4.332;2022-08-19T05:30:48;17.10;99.90
24152;DHT22;12311;50.866;4.332;2022-08-19T05:33:16;17.10;99.90
24152;DHT22;12311;50.866;4.332;2022-08-19T05:35:42;17.10;99.90
24152;DHT22;12311;50.866;4.332;2022-08-19T05:38:09;17.20;99.90
24152;DHT22;12311;50.866;4.332;2022-08-19T05:40:35;17.20;99.90
24152;DHT22;12311;50.866;4.332;2022-08-19T05:43:05;17.30;99.90
24152;DHT22;12311;50.866;4.332;2022-08-19T05:45:32;17.40;99.90
24152;DHT22;12311;50.866;4.332;2022-08-19T05:47:57;17.40;99.90
24152;DHT22;12311;50.866;4.332;2022-08-19T05:50:24;17.50;99.90
24152;DHT22;12311;50.866;4.332;2022-08-19T05:52:52;17.60;99.90
24152;DHT22;12311;50.866;4.332;2022-08-19T05:55:18;17.70;99.90
24152;DHT22;12311;50.866;4.332;2022-08-19T05:57:46;17.70;99.90
24152;DHT22;12311;50.866;4.332;2022-08-19T06:00:12;17.80;99.90
24152;DHT22;12311;50.866;4.332;2022-08-19T06:02:38;17.80;99.90
24152;DHT22;12311;50.866;4.332;2022-08-19T06:05:06;18.00;99.90
24152;DHT22;12311;50.866;4.332;2022-08-19T06:07:35;18.20;99.90
24152;DHT22;12311;50.866;4.332;2022-08-19T06:10:01;18.30;99.90
24152;DHT22;12311;50.866;4.332;2022-08-19T06:12:31;18.40;99.90
24152;DHT22;12311;50.866;4.332;2022-08-19T06:15:08;18.40;99.90
24152;DHT22;12311;50.866;4.332;2022-08-19T06:17:34;18.50;99.90
24152;DHT22;12311;50.866;4.332;2022-08-19T06:20:01;18.60;99.90
24152;DHT22;12311;50.866;4.332;2022-08-19T06:22:27;18.70;99.90
24152;DHT22;12311;50.866;4.332;2022-08-19T06:24:54;18.60;99.90
24152;DHT22;12311;50.866;4.332;2022-08-19T06:27:20;18.60;99.90
24152;DHT22;12311;50.866;4.332;2022-08-19T06:29:46;18.60;99.90
24152;DHT22;12311;50.866;4.332;2022-08-19T06:32:15;18.70;99.90
24152;DHT22;12311;50.866;4.332;2022-08-19T06:34:41;18.80;99.90
24152;DHT22;12311;50.866;4.332;2022-08-19T06:37:07;18.80;99.90
24152;DHT22;12311;50.866;4.332;2022-08-19T06:39:37;18.80;99.90
24152;DHT22;12311;50.866;4.332;2022-08-19T06:42:05;18.90;99.90
24152;DHT22;12311;50.866;4.332;2022-08-19T06:44:35;19.00;99.90
24152;DHT22;12311;50.866;4.332;2022-08-19T06:47:05;19.20;99.90
24152;DHT22;12311;50.866;4.332;2022-08-19T06:49:31;19.30;99.90
24152;DHT22;12311;50.866;4.332;2022-08-19T06:51:58;19.30;99.90
24152;DHT22;12311;50.866;4.332;2022-08-19T06:54:25;19.40;99.90
24152;DHT22;12311;50.866;4.332;2022-08-19T06:56:51;19.40;99.90
24152;DHT22;12311;50.866;4.332;2022-08-19T06:59:19;19.50;99.90
24152;DHT22;12311;50.866;4.332;2022-08-19T07:01:48;19.60;99.90
24152;DHT22;12311;50.866;4.332;2022-08-19T07:04:17;19.80;99.90
24152;DHT22;12311;50.866;4.332;2022-08-19T07:06:43;20.00;99.90
24152;DHT22;12311;50.866;4.332;2022-08-19T07:09:11;20.00;99.90
24152;DHT22;12311;50.866;4.332;2022-08-19T07:11:37;20.00;99.90
24152;DHT22;12311;50.866;4.332;2022-08-19T07:14:03;20.00;99.90
24152;DHT22;12311;50.866;4.332;2022-08-19T07:16:29;19.90;99.90
24152;DHT22;12311;50.866;4.332;2022-08-19T07:18:55;20.10;99.90
24152;DHT22;12311;50.866;4.332;2022-08-19T07:21:26;20.00;99.90
24152;DHT22;12311;50.866;4.332;2022-08-19T07:23:54;20.10;99.90
24152;DHT22;12311;50.866;4.332;2022-08-19T07:26:26;20.30;99.90
24152;DHT22;12311;50.866;4.332;2022-08-19T07:28:52;20.40;99.90
24152;DHT22;12311;50.866;4.332;2022-08-19T07:31:21;20.20;99.90
24152;DHT22;12311;50.866;4.332;2022-08-19T07:33:48;20.00;99.90
24152;DHT22;12311;50.866;4.332;2022-08-19T07:36:17;20.20;99.90
24152;DHT22;12311;50.866;4.332;2022-08-19T07:38:45;20.30;99.90
24152;DHT22;12311;50.866;4.332;2022-08-19T07:41:16;20.50;99.90
24152;DHT22;12311;50.866;4.332;2022-08-19T07:43:41;20.50;99.90
24152;DHT22;12311;50.866;4.332;2022-08-19T07:46:09;20.40;99.90
24152;DHT22;12311;50.866;4.332;2022-08-19T07:48:35;20.50;99.90
24152;DHT22;12311;50.866;4.332;2022-08-19T07:51:03;20.50;99.90
24152;DHT22;12311;50.866;4.332;2022-08-19T07:53:31;20.60;99.90
24152;DHT22;12311;50.866;4.332;2022-08-19T07:55:58;20.90;99.90
24152;DHT22;12311;50.866;4.332;2022-08-19T07:58:27;21.00;99.90
24152;DHT22;12311;50.866;4.332;2022-08-19T08:00:53;21.10;99.90
24152;DHT22;12311;50.866;4.332;2022-08-19T08:03:21;21.40;99.90
24152;DHT22;12311;50.866;4.332;2022-08-19T08:06:07;21.50;99.90
24152;DHT22;12311;50.866;4.332;2022-08-19T08:08:52;21.20;99.90
24152;DHT22;12311;50.866;4.332;2022-08-19T08:11:40;21.20;99.90
24152;DHT22;12311;50.866;4.332;2022-08-19T08:14:08;21.50;99.90
24152;DHT22;12311;50.866;4.332;2022-08-19T08:16:36;21.60;99.90
24152;DHT22;12311;50.866;4.332;2022-08-19T08:19:05;21.60;99.90
24152;DHT22;12311;50.866;4.332;2022-08-19T08:21:33;21.80;99.90
24152;DHT22;12311;50.866;4.332;2022-08-19T08:23:59;21.60;99.90
24152;DHT22;12311;50.866;4.332;2022-08-19T08:26:25;21.60;99.90
24152;DHT22;12311;50.866;4.332;2022-08-19T08:28:52;21.60;99.90
24152;DHT22;12311;50.866;4.332;2022-08-19T08:31:18;21.70;99.90
24152;DHT22;12311;50.866;4.332;2022-08-19T08:33:44;21.80;99.90
24152;DHT22;12311;50.866;4.332;2022-08-19T08:36:12;21.60;99.90
24152;DHT22;12311;50.866;4.332;2022-08-19T08:38:40;21.70;99.90
24152;DHT22;12311;50.866;4.332;2022-08-19T08:41:31;21.90;99.90
24152;DHT22;12311;50.866;4.332;2022-08-19T08:44:01;21.80;99.90
24152;DHT22;12311;50.866;4.332;2022-08-19T08:46:55;21.60;99.90
24152;DHT22;12311;50.866;4.332;2022-08-19T08:49:25;21.80;99.90
24152;DHT22;12311;50.866;4.332;2022-08-19T08:52:06;21.90;99.90
24152;DHT22;12311;50.866;4.332;2022-08-19T08:54:43;22.10;99.90
24152;DHT22;12311;50.866;4.332;2022-08-19T08:57:27;22.30;99.90
24152;DHT22;12311;50.866;4.332;2022-08-19T08:59:54;22.30;99.90
24152;DHT22;12311;50.866;4.332;2022-08-19T09:02:22;22.30;99.90
24152;DHT22;12311;50.866;4.332;2022-08-19T09:04:48;22.20;99.90
24152;DHT22;12311;50.866;4.332;2022-08-19T09:07:34;22.40;99.90
24152;DHT22;12311;50.866;4.332;2022-08-19T09:10:11;22.70;99.90
24152;DHT22;12311;50.866;4.332;2022-08-19T09:12:46;22.60;99.90
24152;DHT22;12311;50.866;4.332;2022-08-19T09:15:37;22.50;99.90
24152;DHT22;12311;50.866;4.332;2022-08-19T09:18:04;22.50;99.90
24152;DHT22;12311;50.866;4.332;2022-08-19T09:20:32;22.50;99.90
24152;DHT22;12311;50.866;4.332;2022-08-19T09:22:57;22.60;99.90
24152;DHT22;12311;50.866;4.332;2022-08-19T09:25:24;22.60;99.90
24152;DHT22;12311;50.866;4.332;2022-08-19T09:27:51;22.60;99.90
24152;DHT22;12311;50.866;4.332;2022-08-19T09:30:24;22.40;99.90
24152;DHT22;12311;50.866;4.332;2022-08-19T09:32:50;22.50;99.90
24152;DHT22;12311;50.866;4.332;2022-08-19T09:35:18;22.60;99.90
24152;DHT22;12311;50.866;4.332;2022-08-19T09:37:44;22.60;99.90
24152;DHT22;12311;50.866;4.332;2022-08-19T09:40:11;22.90;99.90
24152;DHT22;12311;50.866;4.332;2022-08-19T09:42:37;23.20;99.90
24152;DHT22;12311;50.866;4.332;2022-08-19T09:45:03;23.40;99.90
24152;DHT22;12311;50.866;4.332;2022-08-19T09:47:29;23.50;99.90
24152;DHT22;12311;50.866;4.332;2022-08-19T09:49:55;23.40;99.90
24152;DHT22;12311;50.866;4.332;2022-08-19T09:52:21;23.00;99.90
24152;DHT22;12311;50.866;4.332;2022-08-19T09:54:46;22.90;99.90
24152;DHT22;12311;50.866;4.332;2022-08-19T09:57:12;23.00;99.90
24152;DHT22;12311;50.866;4.332;2022-08-19T09:59:39;22.90;99.90
24152;DHT22;12311;50.866;4.332;2022-08-19T10:02:05;23.00;99.90
24152;DHT22;12311;50.866;4.332;2022-08-19T10:04:30;23.10;99.90
24152;DHT22;12311;50.866;4.332;2022-08-19T10:07:15;23.40;99.90
24152;DHT22;12311;50.866;4.332;2022-08-19T10:09:41;23.10;99.90
24152;DHT22;12311;50.866;4.332;2022-08-19T10:12:07;23.00;99.90
24152;DHT22;12311;50.866;4.332;2022-08-19T10:14:33;23.00;99.90
24152;DHT22;12311;50.866;4.332;2022-08-19T10:16:59;23.00;99.90
24152;DHT22;12311;50.866;4.332;2022-08-19T10:19:28;23.00;99.90
24152;DHT22;12311;50.866;4.332;2022-08-19T10:21:55;22.90;99.90
24152;DHT22;12311;50.866;4.332;2022-08-19T10:24:21;22.70;99.90
24152;DHT22;12311;50.866;4.332;2022-08-19T10:26:49;22.40;99.90
24152;DHT22;12311;50.866;4.332;2022-08-19T10:29:15;22.60;99.90
24152;DHT22;12311;50.866;4.332;2022-08-19T10:31:41;22.80;99.90
24152;DHT22;12311;50.866;4.332;2022-08-19T10:34:07;22.90;99.90
24152;DHT22;12311;50.866;4.332;2022-08-19T10:36:35;22.80;99.90
24152;DHT22;12311;50.866;4.332;2022-08-19T10:39:06;22.70;99.90
24152;DHT22;12311;50.866;4.332;2022-08-19T10:41:34;22.50;99.90
24152;DHT22;12311;50.866;4.332;2022-08-19T10:44:03;22.60;99.90
24152;DHT22;12311;50.866;4.332;2022-08-19T10:46:31;22.80;99.90
24152;DHT22;12311;50.866;4.332;2022-08-19T10:49:02;22.90;99.90
24152;DHT22;12311;50.866;4.332;2022-08-19T10:51:28;23.00;99.90
24152;DHT22;12311;50.866;4.332;2022-08-19T10:54:12;22.80;99.90
24152;DHT22;12311;50.866;4.332;2022-08-19T10:56:38;22.70;99.90
24152;DHT22;12311;50.866;4.332;2022-08-19T10:59:33;22.40;99.90
24152;DHT22;12311;50.866;4.332;2022-08-19T11:02:02;22.30;99.90
24152;DHT22;12311;50.866;4.332;2022-08-19T11:04:28;22.20;99.90
24152;DHT22;12311;50.866;4.332;2022-08-19T11:06:54;22.40;99.90
24152;DHT22;12311;50.866;4.332;2022-08-19T11:09:24;22.50;99.90
24152;DHT22;12311;50.866;4.332;2022-08-19T11:11:52;23.00;99.90
24152;DHT22;12311;50.866;4.332;2022-08-19T11:14:18;23.30;99.90
24152;DHT22;12311;50.866;4.332;2022-08-19T11:16:46;23.40;99.90
24152;DHT22;12311;50.866;4.332;2022-08-19T11:19:13;23.40;99.90
24152;DHT22;12311;50.866;4.332;2022-08-19T11:21:43;23.70;99.90
24152;DHT22;12311;50.866;4.332;2022-08-19T11:24:12;24.30;99.90
24152;DHT22;12311;50.866;4.332;2022-08-19T11:26:39;24.40;99.90
24152;DHT22;12311;50.866;4.332;2022-08-19T11:29:07;24.50;99.90
24152;DHT22;12311;50.866;4.332;2022-08-19T11:31:37;24.40;99.90
24152;DHT22;12311;50.866;4.332;2022-08-19T11:34:06;23.90;99.90
24152;DHT22;12311;50.866;4.332;2022-08-19T11:36:32;23.50;99.90
24152;DHT22;12311;50.866;4.332;2022-08-19T11:38:59;23.50;99.90
24152;DHT22;12311;50.866;4.332;2022-08-19T11:41:25;23.30;99.90
24152;DHT22;12311;50.866;4.332;2022-08-19T11:43:52;23.20;99.90
24152;DHT22;12311;50.866;4.332;2022-08-19T11:46:22;23.40;99.90
24152;DHT22;12311;50.866;4.332;2022-08-19T11:48:48;23.90;99.90
24152;DHT22;12311;50.866;4.332;2022-08-19T11:51:20;24.30;99.90
24152;DHT22;12311;50.866;4.332;2022-08-19T11:53:47;24.60;99.90
24152;DHT22;12311;50.866;4.332;2022-08-19T11:56:14;24.50;99.90
24152;DHT22;12311;50.866;4.332;2022-08-19T11:58:40;24.40;99.90
24152;DHT22;12311;50.866;4.332;2022-08-19T12:01:15;24.80;99.90
24152;DHT22;12311;50.866;4.332;2022-08-19T12:03:42;25.00;99.90
24152;DHT22;12311;50.866;4.332;2022-08-19T12:06:15;25.30;99.90
24152;DHT22;12311;50.866;4.332;2022-08-19T12:08:41;25.60;99.90
24152;DHT22;12311;50.866;4.332;2022-08-19T12:11:09;25.50;99.90
24152;DHT22;12311;50.866;4.332;2022-08-19T12:13:37;25.40;99.90
24152;DHT22;12311;50.866;4.332;2022-08-19T12:16:24;25.70;99.90
24152;DHT22;12311;50.866;4.332;2022-08-19T12:18:50;25.80;99.90
24152;DHT22;12311;50.866;4.332;2022-08-19T12:21:19;26.20;99.90
24152;DHT22;12311;50.866;4.332;2022-08-19T12:23:48;26.50;99.90
24152;DHT22;12311;50.866;4.332;2022-08-19T12:26:14;26.40;99.90
24152;DHT22;12311;50.866;4.332;2022-08-19T12:28:40;26.20;99.90
24152;DHT22;12311;50.866;4.332;2022-08-19T12:31:07;25.90;99.90
24152;DHT22;12311;50.866;4.332;2022-08-19T12:33:33;26.10;99.90
24152;DHT22;12311;50.866;4.332;2022-08-19T12:36:07;26.20;99.90
24152;DHT22;12311;50.866;4.332;2022-08-19T12:38:33;26.20;99.90
24152;DHT22;12311;50.866;4.332;2022-08-19T12:41:00;26.20;99.90
24152;DHT22;12311;50.866;4.332;2022-08-19T12:43:26;26.00;99.90
24152;DHT22;12311;50.866;4.332;2022-08-19T12:45:52;26.10;99.90
24152;DHT22;12311;50.866;4.332;2022-08-19T12:48:18;26.50;99.90
24152;DHT22;12311;50.866;4.332;2022-08-19T12:50:44;26.80;99.90
24152;DHT22;12311;50.866;4.332;2022-08-19T12:53:11;26.80;99.90
24152;DHT22;12311;50.866;4.332;2022-08-19T12:55:37;26.70;99.90
24152;DHT22;12311;50.866;4.332;2022-08-19T12:58:03;26.50;99.90
24152;DHT22;12311;50.866;4.332;2022-08-19T13:00:29;26.40;99.90
24152;DHT22;12311;50.866;4.332;2022-08-19T13:02:58;27.00;99.90
24152;DHT22;12311;50.866;4.332;2022-08-19T13:05:26;27.60;99.90
24152;DHT22;12311;50.866;4.332;2022-08-19T13:07:53;28.30;99.90
24152;DHT22;12311;50.866;4.332;2022-08-19T13:10:24;27.90;99.90
24152;DHT22;12311;50.866;4.332;2022-08-19T13:12:51;27.90;99.90
24152;DHT22;12311;50.866;4.332;2022-08-19T13:15:18;28.00;99.90
24152;DHT22;12311;50.866;4.332;2022-08-19T13:17:48;27.80;99.90
24152;DHT22;12311;50.866;4.332;2022-08-19T13:20:15;27.80;99.90
24152;DHT22;12311;50.866;4.332;2022-08-19T13:22:41;27.20;99.90
24152;DHT22;12311;50.866;4.332;2022-08-19T13:25:08;26.80;99.90
24152;DHT22;12311;50.866;4.332;2022-08-19T13:27:34;26.50;99.90
24152;DHT22;12311;50.866;4.332;2022-08-19T13:30:00;26.40;99.90
24152;DHT22;12311;50.866;4.332;2022-08-19T13:32:45;26.30;99.90
24152;DHT22;12311;50.866;4.332;2022-08-19T13:35:29;26.60;99.90
24152;DHT22;12311;50.866;4.332;2022-08-19T13:37:54;27.00;99.90
24152;DHT22;12311;50.866;4.332;2022-08-19T13:40:22;27.60;99.90
24152;DHT22;12311;50.866;4.332;2022-08-19T13:42:51;27.90;99.90
24152;DHT22;12311;50.866;4.332;2022-08-19T13:45:20;28.10;99.90
24152;DHT22;12311;50.866;4.332;2022-08-19T13:47:48;28.20;99.90
24152;DHT22;12311;50.866;4.332;2022-08-19T13:50:16;28.20;99.90
24152;DHT22;12311;50.866;4.332;2022-08-19T13:52:42;28.20;99.90
24152;DHT22;12311;50.866;4.332;2022-08-19T13:55:10;28.00;99.90
24152;DHT22;12311;50.866;4.332;2022-08-19T13:57:36;27.50;99.90
24152;DHT22;12311;50.866;4.332;2022-08-19T14:00:07;27.00;99.90
24152;DHT22;12311;50.866;4.332;2022-08-19T14:02:36;26.60;99.90
24152;DHT22;12311;50.866;4.332;2022-08-19T14:05:04;26.00;99.90
24152;DHT22;12311;50.866;4.332;2022-08-19T14:07:31;25.70;99.90
24152;DHT22;12311;50.866;4.332;2022-08-19T14:09:57;25.10;99.90
24152;DHT22;12311;50.866;4.332;2022-08-19T14:12:23;24.60;99.90
24152;DHT22;12311;50.866;4.332;2022-08-19T14:14:49;24.40;99.90
24152;DHT22;12311;50.866;4.332;2022-08-19T14:17:15;24.20;99.90
24152;DHT22;12311;50.866;4.332;2022-08-19T14:19:41;23.90;99.90
24152;DHT22;12311;50.866;4.332;2022-08-19T14:22:08;23.50;99.90
24152;DHT22;12311;50.866;4.332;2022-08-19T14:24:34;23.30;99.90
24152;DHT22;12311;50.866;4.332;2022-08-19T14:27:02;23.10;99.90
24152;DHT22;12311;50.866;4.332;2022-08-19T14:29:28;23.10;99.90
24152;DHT22;12311;50.866;4.332;2022-08-19T14:31:54;23.00;99.90
24152;DHT22;12311;50.866;4.332;2022-08-19T14:34:21;22.90;99.90
24152;DHT22;12311;50.866;4.332;2022-08-19T14:36:47;22.90;99.90
24152;DHT22;12311;50.866;4.332;2022-08-19T14:39:13;22.80;99.90
24152;DHT22;12311;50.866;4.332;2022-08-19T14:41:40;22.70;99.90
24152;DHT22;12311;50.866;4.332;2022-08-19T14:44:07;22.50;99.90
24152;DHT22;12311;50.866;4.332;2022-08-19T14:46:35;22.50;99.90
24152;DHT22;12311;50.866;4.332;2022-08-19T14:49:00;22.40;99.90
24152;DHT22;12311;50.866;4.332;2022-08-19T14:51:26;22.30;99.90
24152;DHT22;12311;50.866;4.332;2022-08-19T14:53:52;22.50;99.90
24152;DHT22;12311;50.866;4.332;2022-08-19T14:56:22;22.80;99.90
24152;DHT22;12311;50.866;4.332;2022-08-19T14:58:48;23.00;99.90
24152;DHT22;12311;50.866;4.332;2022-08-19T15:01:17;23.60;99.90
24152;DHT22;12311;50.866;4.332;2022-08-19T15:03:46;25.00;99.90
24152;DHT22;12311;50.866;4.332;2022-08-19T15:06:13;26.00;99.90
24152;DHT22;12311;50.866;4.332;2022-08-19T15:08:40;27.60;99.90
24152;DHT22;12311;50.866;4.332;2022-08-19T15:11:14;28.20;99.90
24152;DHT22;12311;50.866;4.332;2022-08-19T15:13:42;28.40;99.90
24152;DHT22;12311;50.866;4.332;2022-08-19T15:16:11;28.60;99.90
24152;DHT22;12311;50.866;4.332;2022-08-19T15:18:37;29.50;99.90
24152;DHT22;12311;50.866;4.332;2022-08-19T15:21:03;30.10;99.90
24152;DHT22;12311;50.866;4.332;2022-08-19T15:23:29;30.20;99.90
24152;DHT22;12311;50.866;4.332;2022-08-19T15:25:55;29.40;99.90
24152;DHT22;12311;50.866;4.332;2022-08-19T15:28:25;29.00;99.90
24152;DHT22;12311;50.866;4.332;2022-08-19T15:30:51;28.60;99.90
24152;DHT22;12311;50.866;4.332;2022-08-19T15:33:18;27.90;99.90
24152;DHT22;12311;50.866;4.332;2022-08-19T15:35:46;27.60;99.90
24152;DHT22;12311;50.866;4.332;2022-08-19T15:38:12;27.20;99.90